Time;durP1;ratioP1;P1;durP2;ratioP2;P2;SDS_P1;SDS_P2;PMS_P1;PMS_P2;Temp;Humidity;BMP_temperature;BMP_pressure;BME280_temperature;BME280_humidity;BME280_pressure;Samples;Min_cycle;Max_cycle;Signal;HPM_P1;HPM_P2
2022/05/16 00:02:14;;;;;;;7.62;4.42;;;;;;;7.40;64.07;97579.98;1844594;77;25739;-76
2022/05/16 00:04:44;;;;;;;7.70;4.28;;;;;;;7.37;64.03;97584.38;1844681;77;25664;-76
2022/05/16 00:07:12;;;;;;;7.25;4.20;;;;;;;7.30;64.07;97589.68;1844357;77;25766;-75
2022/05/16 00:09:39;;;;;;;7.85;4.40;;;;;;;7.20;64.20;97583.77;1844635;77;27347;-75
2022/05/16 00:12:08;;;;;;;7.35;4.22;;;;;;;7.17;64.32;97585.47;1844570;77;26401;-75
2022/05/16 00:14:35;;;;;;;7.97;4.97;;;;;;;7.15;64.44;97576.77;1844646;77;25822;-76
2022/05/16 00:17:02;;;;;;;7.62;5.47;;;;;;;7.12;64.61;97572.63;1844850;77;25321;-76
2022/05/16 00:19:29;;;;;;;14.05;6.22;;;;;;;7.15;64.69;97580.79;1844804;77;25735;-75
2022/05/16 00:21:57;;;;;;;11.15;5.92;;;;;;;7.14;64.80;97575.09;1844695;77;27524;-79
2022/05/16 00:24:26;;;;;;;8.78;5.42;;;;;;;7.12;64.72;97567.77;1844436;77;25743;-75
2022/05/16 00:26:54;;;;;;;6.97;4.12;;;;;;;7.09;64.77;97569.47;1844935;77;25779;-75
2022/05/16 00:29:20;;;;;;;8.53;5.80;;;;;;;7.03;64.84;97571.53;1844725;77;25825;-76
2022/05/16 00:31:47;;;;;;;7.40;4.33;;;;;;;6.94;65.05;97575.33;1844816;77;26397;-78
2022/05/16 00:34:15;;;;;;;6.37;4.15;;;;;;;6.92;65.14;97573.34;1844707;77;27347;-78
2022/05/16 00:36:47;;;;;;;7.85;4.78;;;;;;;6.86;65.20;97571.73;1844899;77;25701;-75
2022/05/16 00:39:16;;;;;;;7.03;4.20;;;;;;;6.84;65.30;97568.39;1844311;77;25772;-75
2022/05/16 00:41:43;;;;;;;5.42;4.25;;;;;;;6.84;65.37;97572.42;1844740;77;25684;-77
2022/05/16 00:44:10;;;;;;;7.72;4.08;;;;;;;6.81;65.48;97571.44;1844701;77;25715;-76
2022/05/16 00:46:38;;;;;;;7.15;4.00;;;;;;;6.79;65.43;97572.13;1844701;77;27447;-75
2022/05/16 00:49:09;;;;;;;7.58;3.90;;;;;;;6.65;65.39;97577.46;1844544;77;25648;-75
2022/05/16 00:51:49;;;;;;;8.58;4.50;;;;;;;6.50;65.61;97577.45;1732230;82;25789;-76
2022/05/16 00:54:27;;;;;;;9.48;4.03;;;;;;;6.45;65.94;97572.63;1731825;81;25709;-75
2022/05/16 00:56:59;;;;;;;9.63;4.20;;;;;;;6.54;66.13;97571.20;1731834;81;25978;-75
2022/05/16 00:59:39;;;;;;;8.13;4.80;;;;;;;6.59;66.09;97567.48;1729130;82;32928;-75
2022/05/16 01:04:51;;;;;;;11.88;4.58;;;;;;;6.52;66.06;97570.03;1731592;82;25845;-75
2022/05/16 01:07:29;;;;;;;8.15;3.67;;;;;;;6.52;66.07;97574.06;1731865;81;26149;-76
2022/05/16 01:09:56;;;;;;;4.97;3.98;;;;;;;6.51;66.18;97576.45;1574956;91;25860;-76
2022/05/16 01:12:30;;;;;;;9.93;4.25;;;;;;;6.51;66.10;97576.45;1575122;91;27468;-76
2022/05/16 01:15:00;;;;;;;5.70;3.85;;;;;;;6.47;66.03;97570.59;1572919;91;26718;-76
2022/05/16 01:17:29;;;;;;;9.98;4.33;;;;;;;6.42;66.07;97572.98;1575388;91;25827;-76
2022/05/16 01:19:56;;;;;;;5.80;4.28;;;;;;;6.41;66.14;97578.02;1575108;91;26077;-78
2022/05/16 01:22:38;;;;;;;9.78;4.15;;;;;;;6.38;66.18;97577.06;1574455;88;25905;-80
2022/05/16 01:25:10;;;;;;;8.55;4.30;;;;;;;6.37;66.20;97589.30;1558214;92;27542;-79
2022/05/16 01:27:47;;;;;;;7.35;4.10;;;;;;;6.31;66.30;97584.64;1515449;94;25897;-76
2022/05/16 01:30:17;;;;;;;9.35;4.42;;;;;;;6.21;66.38;97586.23;1543425;92;25932;-76
2022/05/16 01:32:44;;;;;;;7.00;3.92;;;;;;;6.22;66.50;97579.03;1543498;92;25955;-75
2022/05/16 01:35:12;;;;;;;7.80;4.03;;;;;;;6.20;66.52;97581.88;1543586;92;25917;-75
2022/05/16 01:40:26;;;;;;;8.15;4.65;;;;;;;6.20;66.61;97587.25;1519748;92;25873;-75
2022/05/16 01:42:53;;;;;;;5.72;4.17;;;;;;;6.19;66.66;97585.58;1518951;94;25832;-77
2022/05/16 01:45:19;;;;;;;6.70;4.42;;;;;;;6.19;66.55;97580.72;1518899;94;25844;-74
2022/05/16 01:47:46;;;;;;;9.43;5.55;;;;;;;6.15;66.60;97578.92;1526164;91;25814;-75
2022/05/16 01:50:12;;;;;;;7.78;5.60;;;;;;;6.12;66.65;97581.45;1561199;91;27551;-75
2022/05/16 01:52:39;;;;;;;9.20;4.67;;;;;;;6.11;66.75;97582.46;1561207;91;25981;-75
2022/05/16 01:55:07;;;;;;;9.13;5.03;;;;;;;6.12;66.76;97591.34;1560994;91;25808;-75
2022/05/16 01:57:33;;;;;;;9.95;4.42;;;;;;;6.11;66.71;97581.12;1561041;91;26388;-75
2022/05/16 02:00:00;;;;;;;6.17;3.67;;;;;;;6.12;66.67;97580.11;1561272;91;25810;-75
2022/05/16 02:02:27;;;;;;;8.35;4.78;;;;;;;6.08;66.70;97585.49;1561232;91;27467;-75
2022/05/16 02:04:54;;;;;;;8.33;4.45;;;;;;;6.04;66.77;97585.51;1561045;91;25809;-79
2022/05/16 02:07:20;;;;;;;8.03;4.37;;;;;;;5.98;66.96;97582.22;1651425;85;25834;-78
2022/05/16 02:09:47;;;;;;;6.70;4.50;;;;;;;5.94;66.96;97578.22;1680998;85;26160;-75
2022/05/16 02:12:13;;;;;;;6.92;4.25;;;;;;;5.90;66.99;97583.63;1681170;85;25801;-78
2022/05/16 02:14:42;;;;;;;8.00;4.37;;;;;;;5.85;67.11;97577.92;1680929;85;28370;-74
2022/05/16 02:17:09;;;;;;;6.40;4.37;;;;;;;5.83;67.15;97581.78;1681015;85;25756;-75
2022/05/16 02:19:35;;;;;;;5.25;4.00;;;;;;;5.78;67.23;97580.48;1680848;85;25887;-75
2022/05/16 02:24:49;;;;;;;6.92;3.98;;;;;;;5.75;67.08;97584.02;1776282;78;25723;-80
2022/05/16 02:27:16;;;;;;;7.03;4.12;;;;;;;5.71;67.16;97582.69;1766346;80;28459;-78
2022/05/16 02:29:45;;;;;;;8.43;5.10;;;;;;;5.69;67.19;97570.81;1766258;81;25741;-76
2022/05/16 02:32:13;;;;;;;7.17;5.15;;;;;;;5.68;67.22;97569.64;1766433;81;25899;-75
2022/05/16 02:34:40;;;;;;;8.95;5.33;;;;;;;5.69;67.19;97573.99;1766309;81;25796;-75
2022/05/16 02:37:08;;;;;;;12.07;7.22;;;;;;;5.67;67.27;97578.22;1766277;81;25785;-75
2022/05/16 02:39:35;;;;;;;12.25;7.90;;;;;;;5.69;67.31;97578.84;1766354;81;27335;-75
2022/05/16 02:42:02;;;;;;;9.70;5.95;;;;;;;5.67;67.29;97577.37;1766268;81;25693;-77
2022/05/16 02:44:28;;;;;;;7.70;5.22;;;;;;;5.64;67.34;97577.72;1766556;81;25741;-75
2022/05/16 02:46:55;;;;;;;7.67;4.80;;;;;;;5.61;67.28;97576.73;1766285;81;25777;-74
2022/05/16 02:49:21;;;;;;;7.03;4.25;;;;;;;5.59;67.30;97577.41;1766339;81;26018;-75
2022/05/16 02:51:49;;;;;;;6.78;4.25;;;;;;;5.55;67.41;97580.13;1766278;81;28095;-74
2022/05/16 02:54:15;;;;;;;8.03;4.10;;;;;;;5.50;67.45;97576.63;1766202;81;25931;-76
2022/05/16 02:56:42;;;;;;;6.00;3.95;;;;;;;5.48;67.45;97581.81;1766416;81;25773;-79
2022/05/16 02:59:08;;;;;;;5.08;3.85;;;;;;;5.44;67.45;97583.50;1766378;81;25759;-75
2022/05/16 03:01:35;;;;;;;11.43;3.98;;;;;;;5.41;67.43;97594.58;1766437;81;25759;-76
2022/05/16 03:04:02;;;;;;;4.85;3.92;;;;;;;5.37;67.49;97592.41;1766221;81;27382;-75
2022/05/16 03:06:29;;;;;;;5.22;3.75;;;;;;;5.33;67.54;97597.27;1766165;81;25777;-75
2022/05/16 03:08:55;;;;;;;5.87;3.85;;;;;;;5.22;67.60;97598.98;1766435;81;25842;-74
2022/05/16 03:11:22;;;;;;;8.00;4.67;;;;;;;5.19;67.85;97600.70;1766358;81;25793;-76
2022/05/16 03:13:50;;;;;;;6.45;4.12;;;;;;;5.19;67.96;97598.02;1766335;81;25831;-75
2022/05/16 03:16:16;;;;;;;4.97;4.00;;;;;;;5.20;67.94;97594.81;1766075;81;27433;-77
2022/05/16 03:18:43;;;;;;;5.95;4.35;;;;;;;5.20;68.06;97600.16;1766156;79;25709;-76
2022/05/16 03:21:11;;;;;;;7.62;4.53;;;;;;;5.20;68.06;97601.00;1766346;81;25800;-75
2022/05/16 03:23:38;;;;;;;6.55;3.87;;;;;;;5.20;68.12;97604.17;1778413;79;26536;-75
2022/05/16 03:26:05;;;;;;;7.95;4.58;;;;;;;5.15;68.22;97604.72;1811407;79;25739;-74
2022/05/16 03:28:32;;;;;;;7.75;4.33;;;;;;;5.17;68.30;97602.70;1811349;79;27391;-78
2022/05/16 03:30:59;;;;;;;8.88;4.60;;;;;;;5.18;68.37;97609.73;1811328;78;25671;-75
2022/05/16 03:33:26;;;;;;;9.53;5.37;;;;;;;5.20;68.37;97611.70;1811169;79;25743;-76
2022/05/16 03:35:55;;;;;;;9.63;4.12;;;;;;;5.18;68.43;97619.09;1811254;79;25628;-75
2022/05/16 03:41:08;;;;;;;10.03;4.78;;;;;;;5.18;68.61;97617.76;1810951;79;28246;-79
2022/05/16 03:43:37;;;;;;;7.35;4.25;;;;;;;5.19;68.72;97612.73;1811037;79;25850;-75
2022/05/16 03:46:05;;;;;;;8.30;4.17;;;;;;;5.21;68.65;97613.88;1811270;79;25731;-75
2022/05/16 03:48:34;;;;;;;10.65;4.58;;;;;;;5.21;68.79;97614.71;1811475;79;25696;-74
2022/05/16 03:51:02;;;;;;;5.42;3.85;;;;;;;5.23;68.86;97620.73;1811171;79;25718;-76
2022/05/16 03:53:29;;;;;;;6.72;4.28;;;;;;;5.25;68.88;97616.05;1811324;79;28766;-78
2022/05/16 03:55:56;;;;;;;8.05;4.95;;;;;;;5.28;68.87;97618.39;1811147;79;25739;-78
2022/05/16 03:58:23;;;;;;;8.18;4.50;;;;;;;5.32;68.91;97624.20;1811282;79;25716;-78
2022/05/16 04:00:50;;;;;;;12.43;5.10;;;;;;;5.32;68.94;97619.69;1811180;79;25748;-74
2022/05/16 04:03:16;;;;;;;9.38;4.20;;;;;;;5.35;69.05;97620.69;1811353;79;25731;-77
2022/05/16 04:05:43;;;;;;;9.53;5.00;;;;;;;5.39;69.14;97623.36;1811643;79;28012;-76
2022/05/16 04:08:10;;;;;;;8.90;5.05;;;;;;;5.41;69.20;97618.67;1811060;79;25801;-80
2022/05/16 04:10:36;;;;;;;9.73;5.42;;;;;;;5.44;69.32;97622.31;1811196;79;25764;-74
2022/05/16 04:13:03;;;;;;;8.18;5.05;;;;;;;5.50;69.42;97616.78;1811122;79;25747;-75
2022/05/16 04:15:29;;;;;;;11.93;5.65;;;;;;;5.56;69.48;97620.09;1811239;79;25768;-74
2022/05/16 04:17:56;;;;;;;8.48;5.62;;;;;;;5.61;69.61;97623.59;1810979;79;27419;-74
2022/05/16 04:20:23;;;;;;;12.85;6.62;;;;;;;5.65;69.60;97617.72;1811259;79;25754;-75
2022/05/16 04:22:50;;;;;;;11.00;7.00;;;;;;;5.70;69.68;97618.02;1811355;79;25744;-75
2022/05/16 04:25:20;;;;;;;12.82;7.15;;;;;;;5.77;69.81;97620.84;1810934;79;25743;-76
2022/05/16 04:27:46;;;;;;;13.80;6.97;;;;;;;5.83;69.86;97624.14;1811099;79;25451;-78
2022/05/16 04:30:14;;;;;;;13.65;7.30;;;;;;;5.89;69.90;97619.46;1811281;79;27317;-75
2022/05/16 04:32:41;;;;;;;16.48;7.08;;;;;;;5.97;69.92;97622.08;1811246;79;25660;-75
2022/05/16 04:35:08;;;;;;;14.07;7.58;;;;;;;6.05;69.97;97620.68;1811218;79;25710;-78
2022/05/16 04:37:35;;;;;;;11.88;6.87;;;;;;;6.12;70.01;97618.97;1811422;79;25660;-75
2022/05/16 04:40:06;;;;;;;22.17;7.80;;;;;;;6.20;70.01;97614.55;1811280;79;25696;-75
2022/05/16 04:42:42;;;;;;;17.07;7.00;;;;;;;6.25;70.01;97614.87;1811065;79;27408;-75
2022/05/16 04:45:22;;;;;;;16.75;7.58;;;;;;;6.30;70.03;97609.27;1811095;79;26017;-75
2022/05/16 04:47:52;;;;;;;12.53;7.03;;;;;;;6.38;70.06;97607.05;1811518;79;25767;-75
2022/05/16 04:50:23;;;;;;;21.77;8.03;;;;;;;6.47;70.10;97609.98;1811449;79;25730;-75
2022/05/16 04:52:50;;;;;;;16.32;6.85;;;;;;;6.56;70.12;97606.22;1811753;79;25765;-75
2022/05/16 04:55:18;;;;;;;15.32;6.35;;;;;;;6.66;70.09;97608.13;1810990;79;27274;-75
2022/05/16 04:57:45;;;;;;;13.90;7.58;;;;;;;6.73;70.04;97597.52;1811105;79;25687;-75
2022/05/16 05:00:15;;;;;;;18.00;7.95;;;;;;;6.82;70.17;97599.10;1811381;79;25675;-78
2022/05/16 05:02:43;;;;;;;19.02;8.03;;;;;;;6.91;70.33;97610.07;1811423;79;25711;-75
2022/05/16 05:05:11;;;;;;;16.90;6.90;;;;;;;6.98;70.42;97601.63;1811435;79;25732;-79
2022/05/16 05:07:39;;;;;;;14.03;5.67;;;;;;;7.06;70.56;97597.50;1811434;79;27503;-75
2022/05/16 05:15:39;;;;;;;25.48;11.85;;;;;;;7.32;70.64;97592.19;1811416;79;25767;-79
2022/05/16 05:18:07;;;;;;;28.00;12.10;;;;;;;7.43;70.63;97594.39;1811449;79;25751;-79
2022/05/16 05:20:33;;;;;;;22.52;9.55;;;;;;;7.51;70.70;97591.08;1811369;79;27400;-79
2022/05/16 05:23:02;;;;;;;16.10;7.55;;;;;;;7.61;70.73;97587.30;1811246;79;25703;-75
2022/05/16 05:25:29;;;;;;;17.98;7.12;;;;;;;7.70;70.71;97586.16;1815821;78;25722;-79
2022/05/16 05:28:01;;;;;;;17.92;7.28;;;;;;;7.80;70.76;97588.03;1817180;78;25670;-76
2022/05/16 05:30:29;;;;;;;;;;;;;;;7.91;70.93;97588.88;1819626;78;25695;-75
2022/05/16 05:32:55;;;;;;;13.30;5.20;;;;;;;8.04;71.21;97586.33;1817277;78;27589;-77
2022/05/16 05:35:22;;;;;;;13.48;5.75;;;;;;;8.14;70.95;97586.01;1816994;78;25733;-75
2022/05/16 05:37:48;;;;;;;12.23;5.72;;;;;;;8.26;70.91;97588.51;1817064;78;25689;-77
2022/05/16 05:40:15;;;;;;;14.45;5.10;;;;;;;8.37;70.91;97583.98;1817017;78;26409;-80
2022/05/16 05:42:42;;;;;;;17.25;5.40;;;;;;;8.49;70.76;97582.95;1817260;78;25887;-76
2022/05/16 05:45:10;;;;;;;14.63;5.78;;;;;;;8.59;70.60;97584.80;1817083;78;27339;-75
2022/05/16 05:47:37;;;;;;;12.80;5.87;;;;;;;8.69;70.32;97589.87;1817029;78;25771;-77
2022/05/16 05:50:06;;;;;;;12.20;5.67;;;;;;;8.80;70.20;97588.81;1816909;78;25723;-76
2022/05/16 05:52:33;;;;;;;12.95;5.62;;;;;;;8.93;70.24;97581.35;1817007;78;25367;-76
2022/05/16 05:54:59;;;;;;;12.58;5.87;;;;;;;9.07;70.17;97584.42;1817141;78;25632;-75
2022/05/16 05:57:26;;;;;;;14.43;6.05;;;;;;;9.20;70.12;97583.67;1817081;78;27299;-76
2022/05/16 05:59:55;;;;;;;11.53;4.87;;;;;;;9.33;69.81;97580.55;1816956;78;25699;-76
2022/05/16 06:02:22;;;;;;;8.50;4.40;;;;;;;9.48;69.52;97584.98;1817218;78;25752;-76
2022/05/16 06:04:48;;;;;;;8.00;4.75;;;;;;;9.59;69.07;97577.66;1817018;78;25720;-76
2022/05/16 06:07:16;;;;;;;12.18;5.62;;;;;;;9.72;68.85;97577.20;1817158;78;25686;-76
2022/05/16 06:09:42;;;;;;;9.68;4.45;;;;;;;9.86;68.58;97575.91;1817207;78;27420;-76
2022/05/16 06:12:10;;;;;;;9.90;4.87;;;;;;;10.00;68.55;97578.96;1817002;78;25626;-74
2022/05/16 06:14:38;;;;;;;7.60;4.53;;;;;;;10.16;68.34;97577.22;1816950;78;25762;-78
2022/05/16 06:17:08;;;;;;;9.80;4.95;;;;;;;10.34;68.49;97573.45;1817157;78;26509;-77
2022/05/16 06:19:36;;;;;;;10.13;4.97;;;;;;;10.54;68.37;97582.07;1817000;78;25901;-75
2022/05/16 06:22:03;;;;;;;9.55;4.65;;;;;;;10.73;68.07;97573.17;1817102;78;27372;-76
2022/05/16 06:27:15;;;;;;;9.03;5.65;;;;;;;11.08;67.50;97567.00;1816914;78;25724;-76
2022/05/16 06:29:42;;;;;;;12.47;5.45;;;;;;;11.28;67.23;97565.59;1817201;78;25670;-79
2022/05/16 06:32:08;;;;;;;12.47;5.25;;;;;;;11.44;66.94;97561.09;1817177;78;26371;-77
2022/05/16 06:34:35;;;;;;;10.15;4.80;;;;;;;11.57;66.76;97561.05;1816935;78;27446;-76
2022/05/16 06:37:01;;;;;;;13.08;4.97;;;;;;;11.71;66.45;97557.22;1817038;78;26355;-78
2022/05/16 06:39:28;;;;;;;12.93;5.08;;;;;;;11.86;66.45;97559.16;1817063;78;25652;-79
2022/05/16 06:41:55;;;;;;;13.62;4.90;;;;;;;12.04;66.38;97560.33;1817138;78;26637;-75
2022/05/16 06:44:21;;;;;;;12.20;4.72;;;;;;;12.16;66.12;97554.54;1816984;78;25694;-76
2022/05/16 06:46:48;;;;;;;10.70;4.85;;;;;;;12.32;65.81;97559.96;1817018;78;27353;-76
2022/05/16 06:49:15;;;;;;;10.68;4.60;;;;;;;12.45;65.65;97553.91;1816963;78;25718;-76
2022/05/16 06:51:42;;;;;;;10.60;4.70;;;;;;;12.61;65.68;97549.31;1816726;78;25789;-77
2022/05/16 06:54:08;;;;;;;10.75;4.50;;;;;;;12.75;65.37;97552.75;1816982;78;26358;-77
2022/05/16 06:56:35;;;;;;;7.85;3.95;;;;;;;12.92;65.42;97547.61;1817097;78;25999;-75
2022/05/16 06:59:02;;;;;;;10.13;5.30;;;;;;;13.06;65.26;97545.05;1817040;78;27499;-75
2022/05/16 07:01:28;;;;;;;9.53;4.55;;;;;;;13.20;65.27;97543.90;1816890;78;25627;-76
2022/05/16 07:03:55;;;;;;;12.20;4.58;;;;;;;13.38;65.02;97543.62;1816929;78;25797;-77
2022/05/16 07:06:21;;;;;;;9.50;4.55;;;;;;;13.53;64.23;97541.34;1816993;78;25706;-76
2022/05/16 07:08:48;;;;;;;10.03;4.55;;;;;;;13.68;63.82;97543.14;1817185;78;25667;-76
2022/05/16 07:11:15;;;;;;;6.80;4.10;;;;;;;13.84;64.12;97547.95;1817016;78;27356;-81
2022/05/16 07:13:42;;;;;;;12.33;4.70;;;;;;;13.98;63.69;97545.90;1816622;78;25710;-75
2022/05/16 07:16:08;;;;;;;8.05;4.00;;;;;;;14.09;63.16;97542.41;1816907;78;26329;-75
2022/05/16 07:18:35;;;;;;;12.98;4.67;;;;;;;14.20;62.63;97538.07;1817115;78;25633;-76
2022/05/16 07:21:01;;;;;;;10.55;4.15;;;;;;;14.34;62.55;97538.18;1817040;78;26295;-76
2022/05/16 07:23:28;;;;;;;6.50;3.77;;;;;;;14.50;61.96;97530.73;1817063;78;27357;-78
2022/05/16 07:28:39;;;;;;;9.28;4.08;;;;;;;14.83;61.08;97537.53;1810967;79;25748;-78
2022/05/16 07:31:07;;;;;;;12.58;4.30;;;;;;;15.04;61.31;97536.94;1811487;79;26443;-78
2022/05/16 07:33:35;;;;;;;5.65;3.17;;;;;;;15.24;61.37;97539.29;1811221;79;25726;-76
2022/05/16 07:36:02;;;;;;;13.90;2.90;;;;;;;15.46;60.73;97534.35;1811269;79;27419;-75
2022/05/16 07:38:29;;;;;;;4.33;2.10;;;;;;;15.77;59.69;97529.59;1811172;79;25743;-76
2022/05/16 07:40:56;;;;;;;7.75;2.58;;;;;;;16.12;58.10;97537.09;1811459;78;25728;-77
2022/05/16 07:43:25;;;;;;;5.17;2.45;;;;;;;16.51;56.92;97535.91;1811146;78;25735;-77
2022/05/16 07:45:52;;;;;;;5.53;2.42;;;;;;;16.90;56.50;97535.51;1811426;79;25708;-77
2022/05/16 07:48:19;;;;;;;4.03;1.85;;;;;;;17.37;56.45;97538.67;1810955;79;28072;-77
2022/05/16 07:50:46;;;;;;;4.28;1.60;;;;;;;17.84;54.52;97536.32;1836175;77;25824;-76
2022/05/16 07:53:14;;;;;;;3.30;1.42;;;;;;;18.22;53.69;97544.96;1839655;77;25762;-76
2022/05/16 07:55:50;;;;;;;5.30;1.45;;;;;;;18.62;52.90;97543.19;1834907;77;25920;-77
2022/05/16 07:58:17;;;;;;;4.00;1.20;;;;;;;19.03;51.56;97543.00;1820738;77;25903;-79
2022/05/16 08:00:44;;;;;;;3.17;1.32;;;;;;;19.52;50.40;97533.77;1834000;77;27379;-79
2022/05/16 08:03:14;;;;;;;3.65;1.25;;;;;;;19.93;49.29;97533.41;1837873;77;25662;-76
2022/05/16 08:05:41;;;;;;;9.33;1.80;;;;;;;20.33;48.25;97528.06;1804530;79;25715;-77
2022/05/16 08:10:47;;;;;;;2.67;1.10;;;;;;;21.23;46.76;97527.62;1749843;81;25779;-79
2022/05/16 08:13:16;;;;;;;4.87;1.40;;;;;;;21.63;45.71;97530.27;1749870;81;28263;-76
2022/05/16 08:15:43;;;;;;;4.47;1.80;;;;;;;21.87;44.81;97510.67;1726991;83;25757;-76
2022/05/16 08:18:12;;;;;;;5.10;1.22;;;;;;;22.28;44.60;97526.47;1727419;83;26716;-78
2022/05/16 08:20:44;;;;;;;4.22;1.30;;;;;;;22.66;43.68;97524.58;1727330;83;25731;-77
2022/05/16 08:23:14;;;;;;;5.95;1.80;;;;;;;23.05;43.11;97523.21;1727478;83;25298;-77
2022/05/16 08:25:44;;;;;;;55.95;4.95;;;;;;;23.42;42.34;97534.42;1712455;83;27275;-75
2022/05/16 08:28:10;;;;;;;6.30;1.80;;;;;;;23.84;41.76;97528.20;1700833;84;26079;-76
2022/05/16 08:30:37;;;;;;;3.47;1.70;;;;;;;24.14;41.20;97522.88;1700841;84;25701;-76
2022/05/16 08:33:04;;;;;;;7.62;1.75;;;;;;;24.57;40.67;97523.67;1700832;84;26330;-75
2022/05/16 08:35:32;;;;;;;2.62;1.47;;;;;;;24.93;40.16;97528.67;1700899;84;25729;-74
2022/05/16 08:41:00;;;;;;;2.47;1.50;;;;;;;25.39;38.29;97521.23;1700520;84;25873;-78
2022/05/16 08:43:44;;;;;;;3.92;1.65;;;;;;;25.67;38.01;97516.61;1700856;84;25530;-74
2022/05/16 08:46:32;;;;;;;2.35;1.05;;;;;;;25.91;35.21;97507.29;1701006;84;26395;-74
2022/05/16 08:49:08;;;;;;;4.45;1.40;;;;;;;25.72;35.61;97510.17;1732854;82;25751;-78
2022/05/16 08:51:37;;;;;;;2.77;1.30;;;;;;;25.96;35.43;97508.58;1682798;85;27391;-74
2022/05/16 08:54:14;;;;;;;3.67;1.47;;;;;;;26.24;34.80;97510.17;1682515;85;25839;-74
2022/05/16 08:56:45;;;;;;;5.22;1.35;;;;;;;26.40;34.76;97506.55;1629262;87;25841;-75
2022/05/16 08:59:22;;;;;;;3.80;1.35;;;;;;;26.35;34.36;97503.88;1632202;87;26504;-76
2022/05/16 09:01:56;;;;;;;3.33;1.10;;;;;;;26.47;33.88;97504.98;1611089;87;25893;-74
2022/05/16 09:04:48;;;;;;;3.40;1.35;;;;;;;26.47;33.65;97502.77;1633458;87;28464;-75
2022/05/16 09:07:48;;;;;;;4.37;1.40;;;;;;;26.69;33.37;97502.80;1610221;89;25830;-74
2022/05/16 09:10:31;;;;;;;3.08;1.30;;;;;;;26.82;32.35;97501.94;1606214;89;25964;-73
2022/05/16 09:13:21;;;;;;;2.75;1.37;;;;;;;26.87;32.21;97500.44;1593874;89;26538;-74
2022/05/16 09:16:19;;;;;;;2.05;1.30;;;;;;;27.02;31.90;97496.51;1576188;90;25851;-75
2022/05/16 09:19:06;;;;;;;7.42;1.20;;;;;;;27.20;31.46;97498.81;1599186;89;26855;-76
2022/05/16 09:21:50;;;;;;;3.37;1.30;;;;;;;27.42;31.26;97496.00;1584726;90;26288;-76
2022/05/16 09:24:28;;;;;;;2.55;1.27;;;;;;;27.52;30.44;97497.14;1580693;90;25773;-76
2022/05/16 09:27:14;;;;;;;2.27;1.20;;;;;;;27.43;30.14;97492.09;1581653;90;26485;-73
2022/05/16 09:29:45;;;;;;;2.02;1.15;;;;;;;27.33;29.45;97492.38;1651130;86;25339;-77
2022/05/16 09:32:23;;;;;;;3.40;1.10;;;;;;;27.11;29.53;97492.41;1661258;86;27390;-76
2022/05/16 09:34:49;;;;;;;2.58;1.35;;;;;;;27.22;29.35;97490.44;1657107;85;25874;-74
2022/05/16 09:37:16;;;;;;;2.62;1.10;;;;;;;27.01;28.52;97484.36;1626867;88;25775;-74
2022/05/16 09:39:43;;;;;;;2.22;1.05;;;;;;;26.77;29.03;97484.08;1645165;87;26328;-76
2022/05/16 09:42:23;;;;;;;1.82;1.20;;;;;;;26.65;28.68;97484.38;1655007;86;25743;-75
2022/05/16 09:45:02;;;;;;;4.42;1.20;;;;;;;26.35;28.78;97475.64;1652772;86;27405;-75
2022/05/16 09:47:41;;;;;;;3.10;1.30;;;;;;;26.51;29.27;97472.78;1654900;86;25739;-78
2022/05/16 09:50:16;;;;;;;2.98;1.47;;;;;;;26.80;29.26;97476.53;1655015;86;25917;-75
2022/05/16 09:53:11;;;;;;;4.78;1.42;;;;;;;27.13;29.10;97467.98;1654959;86;26439;-75
2022/05/16 09:55:57;;;;;;;4.45;1.22;;;;;;;27.38;28.70;97471.46;1654739;86;25762;-75
2022/05/16 09:58:29;;;;;;;3.72;1.37;;;;;;;27.29;28.72;97463.65;1655006;86;27493;-76
2022/05/16 10:01:04;;;;;;;2.05;1.35;;;;;;;27.44;28.47;97457.70;1640036;87;25758;-78
2022/05/16 10:03:44;;;;;;;2.20;1.30;;;;;;;27.60;28.24;97457.56;1597722;87;25816;-76
2022/05/16 10:06:35;;;;;;;13.40;1.50;;;;;;;27.76;28.02;97450.20;1589211;89;25837;-77
2022/05/16 10:09:14;;;;;;;2.62;1.07;;;;;;;27.76;28.16;97447.44;1603039;88;25735;-76
2022/05/16 10:11:45;;;;;;;4.67;1.10;;;;;;;27.82;27.78;97454.45;1638097;85;27401;-74
2022/05/16 10:14:12;;;;;;;2.77;1.35;;;;;;;27.73;27.78;97459.16;1706631;83;32477;-76
2022/05/16 10:16:43;;;;;;;1.75;1.35;;;;;;;27.66;27.66;97447.13;1681612;85;25810;-75
2022/05/16 10:19:15;;;;;;;1.55;1.10;;;;;;;27.71;26.95;97448.38;1706991;83;26425;-77
2022/05/16 10:22:08;;;;;;;5.47;1.30;;;;;;;27.63;27.36;97443.64;1681407;85;25759;-75
2022/05/16 10:24:43;;;;;;;2.80;1.40;;;;;;;27.73;27.44;97445.30;1662151;86;27552;-76
2022/05/16 10:27:12;;;;;;;4.28;1.67;;;;;;;27.50;27.74;97443.14;1606721;89;26485;-75
2022/05/16 10:29:44;;;;;;;3.05;1.30;;;;;;;27.57;27.43;97440.17;1602382;89;25985;-75
2022/05/16 10:35:15;;;;;;;2.52;1.50;;;;;;;27.78;26.27;97431.27;1588265;89;25576;-75
2022/05/16 10:37:46;;;;;;;1.77;1.10;;;;;;;27.82;27.13;97430.31;1575628;90;27445;-75
2022/05/16 10:40:30;;;;;;;3.23;1.40;;;;;;;27.81;26.89;97433.41;1589726;89;25827;-75
2022/05/16 10:43:23;;;;;;;3.45;1.65;;;;;;;27.56;27.41;97441.88;1626791;87;25846;-75
2022/05/16 10:45:55;;;;;;;3.00;1.37;;;;;;;27.61;26.61;97437.59;1629508;87;26525;-76
2022/05/16 10:48:30;;;;;;;2.10;1.00;;;;;;;27.46;26.55;97433.25;1631683;87;25775;-76
2022/05/16 10:51:05;;;;;;;3.25;1.22;;;;;;;27.47;26.75;97429.34;1629903;87;27504;-74
2022/05/16 10:53:36;;;;;;;3.55;1.30;;;;;;;27.67;26.95;97435.47;1627422;87;25866;-78
2022/05/16 10:56:38;;;;;;;3.22;1.75;;;;;;;27.73;26.07;97423.11;1610224;87;25838;-75
2022/05/16 10:59:46;;;;;;;1.85;1.27;;;;;;;27.77;27.12;97429.66;1632497;85;25815;-74
2022/05/16 11:02:42;;;;;;;1.82;1.15;;;;;;;28.02;27.22;97428.88;1648873;86;25832;-74
2022/05/16 11:05:19;;;;;;;2.40;1.30;;;;;;;28.38;26.95;97434.17;1648681;87;27600;-75
2022/05/16 11:08:03;;;;;;;5.47;1.57;;;;;;;27.98;26.43;97427.91;1645786;86;25340;-75
2022/05/16 11:10:56;;;;;;;3.52;1.27;;;;;;;27.83;26.86;97425.58;1648875;86;25894;-75
2022/05/16 11:13:38;;;;;;;3.25;1.40;;;;;;;27.54;26.43;97424.14;1646900;86;25783;-76
2022/05/16 11:16:19;;;;;;;2.20;1.00;;;;;;;27.23;26.59;97426.14;1649009;86;26584;-75
2022/05/16 11:19:00;;;;;;;5.12;1.32;;;;;;;27.25;27.09;97421.92;1646104;86;27393;-76
2022/05/16 11:22:07;;;;;;;2.23;1.37;;;;;;;27.50;27.19;97427.33;1594699;89;25821;-77
2022/05/16 11:24:56;;;;;;;5.35;1.42;;;;;;;27.76;25.98;97422.47;1659154;85;25815;-78
2022/05/16 11:27:31;;;;;;;7.03;1.52;;;;;;;27.71;26.57;97411.52;1679415;84;26486;-78
2022/05/16 11:30:25;;;;;;;3.15;1.60;;;;;;;27.78;27.07;97417.39;1679603;85;25901;-75
2022/05/16 11:33:33;;;;;;;4.28;1.67;;;;;;;27.92;27.84;97421.68;1573085;91;27408;-75
2022/05/16 11:36:16;;;;;;;3.58;1.50;;;;;;;27.94;27.31;97428.30;1560930;91;25786;-74
2022/05/16 11:39:02;;;;;;;1.40;1.20;;;;;;;27.71;27.51;97426.77;1494081;94;26064;-75
2022/05/16 11:41:57;;;;;;;5.08;1.40;;;;;;;27.44;27.46;97423.05;1508917;94;25988;-74
2022/05/16 11:44:41;;;;;;;2.58;1.60;;;;;;;27.23;27.41;97424.75;1506427;94;25932;-77
2022/05/16 11:47:40;;;;;;;4.10;1.62;;;;;;;27.00;27.12;97414.28;1508809;94;28097;-78
2022/05/16 11:50:16;;;;;;;1.77;1.30;;;;;;;26.94;27.17;97408.61;1511003;93;26481;-75
2022/05/16 11:53:11;;;;;;;3.05;1.50;;;;;;;26.99;27.60;97405.72;1450715;98;26584;-76
2022/05/16 12:01:39;;;;;;;4.28;1.67;;;;;;;27.39;26.85;97395.49;1433920;99;27480;-79
2022/05/16 12:04:24;;;;;;;5.37;1.22;;;;;;;27.46;26.68;97387.52;1428419;99;25840;-75
2022/05/16 12:07:02;;;;;;;2.50;1.52;;;;;;;27.54;26.21;97390.88;1436071;99;25920;-76
2022/05/16 12:09:36;;;;;;;4.28;1.60;;;;;;;27.53;26.11;97386.47;1391532;101;26423;-75
2022/05/16 12:12:13;;;;;;;3.45;1.25;;;;;;;27.56;25.87;97396.95;1422443;99;26015;-75
2022/05/16 12:14:42;;;;;;;4.00;1.32;;;;;;;27.36;26.46;97389.20;1381773;102;46784;-75
2022/05/16 12:17:19;;;;;;;3.98;1.35;;;;;;;27.14;27.06;97390.08;1382847;102;25995;-76
2022/05/16 12:19:50;;;;;;;6.65;1.30;;;;;;;27.02;27.03;97389.05;1379829;102;25896;-77
2022/05/16 12:22:32;;;;;;;2.98;1.40;;;;;;;27.16;26.72;97384.23;1382928;103;26508;-78
2022/05/16 12:25:28;;;;;;;3.15;1.40;;;;;;;27.35;26.15;97383.97;1377116;103;25823;-76
2022/05/16 12:28:23;;;;;;;2.92;1.10;;;;;;;27.24;26.62;97384.83;1379969;103;27574;-77
2022/05/16 12:30:59;;;;;;;4.15;1.20;;;;;;;26.99;26.43;97388.28;1490734;93;25829;-75
2022/05/16 12:33:43;;;;;;;2.77;1.40;;;;;;;27.02;26.73;97389.86;1515319;93;25897;-77
2022/05/16 12:36:17;;;;;;;1.82;1.40;;;;;;;27.18;26.29;97375.00;1524009;92;25919;-76